Radford, Virginia
Current Conditions -  °F | °C
As of 9:55 PM on Sunday 23 Nov 2014 (Local Time) from KPSK Reporting Station
Light Rain Light Rain  
Wind Chill: 10°   Ceiling: 1600
Heat Index: 10°   Visibility: 7mi
Dew Point: 10°   Wind: 9mph
Humidity: 100%   Direction: 90°E
Pressure: 29.74"   Gusts: NA
Location:  37.12°N, 80.59°W
Report Text: KPSK 240255Z AUTO 09008KT 7SM -RA SCT009 OVC016 10/10 A2974 RMK AO2 LTG DSNT S P0005 60014 T01000100
Loading
Personal Weather Stations






























Interactive Weather Map New forecast layout! Learn more

10-Day Weather Forecast

Advertisements
Track Severe Weather on mobile